sensor_id;sensor_type;location;lat;lon;timestamp;P1;durP1;ratioP1;P2;durP2;ratioP2
74777;SDS011;63298;53.164;8.610;2023-11-19T00:01:42;2.40;;;2.20;;
74777;SDS011;63298;53.164;8.610;2023-11-19T00:04:07;2.08;;;1.98;;
74777;SDS011;63298;53.164;8.610;2023-11-19T00:06:33;2.47;;;2.28;;
74777;SDS011;63298;53.164;8.610;2023-11-19T00:08:58;2.40;;;2.20;;
74777;SDS011;63298;53.164;8.610;2023-11-19T00:11:24;2.10;;;2.00;;
74777;SDS011;63298;53.164;8.610;2023-11-19T00:13:49;2.60;;;2.40;;
74777;SDS011;63298;53.164;8.610;2023-11-19T00:16:14;2.88;;;2.67;;
74777;SDS011;63298;53.164;8.610;2023-11-19T00:18:40;2.90;;;2.67;;
74777;SDS011;63298;53.164;8.610;2023-11-19T00:21:08;3.75;;;2.80;;
74777;SDS011;63298;53.164;8.610;2023-11-19T00:23:34;5.30;;;3.58;;
74777;SDS011;63298;53.164;8.610;2023-11-19T00:25:59;3.90;;;2.70;;
74777;SDS011;63298;53.164;8.610;2023-11-19T00:28:25;2.80;;;2.60;;
74777;SDS011;63298;53.164;8.610;2023-11-19T00:30:50;3.60;;;3.10;;
74777;SDS011;63298;53.164;8.610;2023-11-19T00:33:15;5.32;;;3.22;;
74777;SDS011;63298;53.164;8.610;2023-11-19T00:35:41;4.45;;;3.40;;
74777;SDS011;63298;53.164;8.610;2023-11-19T00:38:06;3.20;;;2.92;;
74777;SDS011;63298;53.164;8.610;2023-11-19T00:40:31;4.03;;;3.55;;
74777;SDS011;63298;53.164;8.610;2023-11-19T00:42:57;3.67;;;3.33;;
74777;SDS011;63298;53.164;8.610;2023-11-19T00:45:22;4.43;;;3.75;;
74777;SDS011;63298;53.164;8.610;2023-11-19T00:47:48;5.20;;;3.75;;
74777;SDS011;63298;53.164;8.610;2023-11-19T00:50:13;5.47;;;3.70;;
74777;SDS011;63298;53.164;8.610;2023-11-19T00:52:38;5.53;;;3.70;;
74777;SDS011;63298;53.164;8.610;2023-11-19T00:55:04;4.55;;;4.15;;
74777;SDS011;63298;53.164;8.610;2023-11-19T00:57:30;5.40;;;4.20;;
74777;SDS011;63298;53.164;8.610;2023-11-19T00:59:56;6.20;;;4.10;;
74777;SDS011;63298;53.164;8.610;2023-11-19T01:02:21;5.50;;;4.40;;
74777;SDS011;63298;53.164;8.610;2023-11-19T01:04:47;5.60;;;4.10;;
74777;SDS011;63298;53.164;8.610;2023-11-19T01:07:12;5.65;;;4.75;;
74777;SDS011;63298;53.164;8.610;2023-11-19T01:09:38;5.30;;;4.45;;
74777;SDS011;63298;53.164;8.610;2023-11-19T01:12:03;5.60;;;4.35;;
74777;SDS011;63298;53.164;8.610;2023-11-19T01:14:29;6.43;;;4.75;;
74777;SDS011;63298;53.164;8.610;2023-11-19T01:16:55;9.82;;;5.35;;
74777;SDS011;63298;53.164;8.610;2023-11-19T01:19:21;6.85;;;4.75;;
74777;SDS011;63298;53.164;8.610;2023-11-19T01:21:47;5.45;;;4.70;;
74777;SDS011;63298;53.164;8.610;2023-11-19T01:24:12;6.50;;;4.65;;
74777;SDS011;63298;53.164;8.610;2023-11-19T01:26:40;6.90;;;5.05;;
74777;SDS011;63298;53.164;8.610;2023-11-19T01:29:06;5.85;;;4.72;;
74777;SDS011;63298;53.164;8.610;2023-11-19T01:31:34;6.65;;;5.45;;
74777;SDS011;63298;53.164;8.610;2023-11-19T01:34:00;6.80;;;5.25;;
74777;SDS011;63298;53.164;8.610;2023-11-19T01:36:25;5.85;;;4.70;;
74777;SDS011;63298;53.164;8.610;2023-11-19T01:38:53;8.15;;;4.97;;
74777;SDS011;63298;53.164;8.610;2023-11-19T01:41:19;5.30;;;4.80;;
74777;SDS011;63298;53.164;8.610;2023-11-19T01:43:44;7.10;;;5.40;;
74777;SDS011;63298;53.164;8.610;2023-11-19T01:46:09;7.55;;;5.53;;
74777;SDS011;63298;53.164;8.610;2023-11-19T01:48:35;7.10;;;5.60;;
74777;SDS011;63298;53.164;8.610;2023-11-19T01:51:04;9.35;;;5.22;;
74777;SDS011;63298;53.164;8.610;2023-11-19T01:53:30;7.28;;;5.50;;
74777;SDS011;63298;53.164;8.610;2023-11-19T01:55:57;7.50;;;5.78;;
74777;SDS011;63298;53.164;8.610;2023-11-19T01:58:22;10.88;;;6.35;;
74777;SDS011;63298;53.164;8.610;2023-11-19T02:00:48;8.15;;;5.68;;
74777;SDS011;63298;53.164;8.610;2023-11-19T02:03:14;7.50;;;5.88;;
74777;SDS011;63298;53.164;8.610;2023-11-19T02:05:39;9.57;;;6.15;;
74777;SDS011;63298;53.164;8.610;2023-11-19T02:08:05;12.50;;;7.18;;
74777;SDS011;63298;53.164;8.610;2023-11-19T02:10:31;10.75;;;6.70;;
74777;SDS011;63298;53.164;8.610;2023-11-19T02:12:57;10.93;;;7.03;;
74777;SDS011;63298;53.164;8.610;2023-11-19T02:15:23;8.55;;;6.75;;
74777;SDS011;63298;53.164;8.610;2023-11-19T02:17:49;10.65;;;7.13;;
74777;SDS011;63298;53.164;8.610;2023-11-19T02:20:14;10.05;;;6.78;;
74777;SDS011;63298;53.164;8.610;2023-11-19T02:22:39;8.70;;;6.38;;
74777;SDS011;63298;53.164;8.610;2023-11-19T02:25:09;9.95;;;7.63;;
74777;SDS011;63298;53.164;8.610;2023-11-19T02:27:44;9.60;;;7.10;;
74777;SDS011;63298;53.164;8.610;2023-11-19T02:30:24;10.85;;;7.65;;
74777;SDS011;63298;53.164;8.610;2023-11-19T02:32:50;10.30;;;7.25;;
74777;SDS011;63298;53.164;8.610;2023-11-19T02:35:15;14.43;;;8.35;;
74777;SDS011;63298;53.164;8.610;2023-11-19T02:37:43;15.40;;;7.82;;
74777;SDS011;63298;53.164;8.610;2023-11-19T02:40:08;13.82;;;8.43;;
74777;SDS011;63298;53.164;8.610;2023-11-19T02:42:34;12.50;;;8.00;;
74777;SDS011;63298;53.164;8.610;2023-11-19T02:44:59;16.88;;;8.70;;
74777;SDS011;63298;53.164;8.610;2023-11-19T02:47:25;17.13;;;8.45;;
74777;SDS011;63298;53.164;8.610;2023-11-19T02:49:50;15.07;;;9.18;;
74777;SDS011;63298;53.164;8.610;2023-11-19T02:52:19;15.13;;;8.20;;
74777;SDS011;63298;53.164;8.610;2023-11-19T02:54:44;17.10;;;9.45;;
74777;SDS011;63298;53.164;8.610;2023-11-19T02:57:09;18.92;;;9.77;;
74777;SDS011;63298;53.164;8.610;2023-11-19T02:59:37;17.17;;;9.80;;
74777;SDS011;63298;53.164;8.610;2023-11-19T03:02:07;15.60;;;9.45;;
74777;SDS011;63298;53.164;8.610;2023-11-19T03:04:33;15.02;;;9.70;;
74777;SDS011;63298;53.164;8.610;2023-11-19T03:07:01;12.27;;;8.65;;
74777;SDS011;63298;53.164;8.610;2023-11-19T03:09:26;13.40;;;9.00;;
74777;SDS011;63298;53.164;8.610;2023-11-19T03:11:52;14.48;;;9.13;;
74777;SDS011;63298;53.164;8.610;2023-11-19T03:14:17;14.55;;;9.38;;
74777;SDS011;63298;53.164;8.610;2023-11-19T03:16:45;18.85;;;9.50;;
74777;SDS011;63298;53.164;8.610;2023-11-19T03:19:10;16.77;;;8.52;;
74777;SDS011;63298;53.164;8.610;2023-11-19T03:21:36;16.10;;;8.75;;
74777;SDS011;63298;53.164;8.610;2023-11-19T03:24:01;13.20;;;8.52;;
74777;SDS011;63298;53.164;8.610;2023-11-19T03:26:27;14.15;;;8.77;;
74777;SDS011;63298;53.164;8.610;2023-11-19T03:28:52;19.00;;;9.45;;
74777;SDS011;63298;53.164;8.610;2023-11-19T03:31:18;12.50;;;8.57;;
74777;SDS011;63298;53.164;8.610;2023-11-19T03:33:43;17.10;;;9.40;;
74777;SDS011;63298;53.164;8.610;2023-11-19T03:36:09;17.92;;;8.43;;
74777;SDS011;63298;53.164;8.610;2023-11-19T03:38:34;20.08;;;9.07;;
74777;SDS011;63298;53.164;8.610;2023-11-19T03:41:00;19.35;;;10.23;;
74777;SDS011;63298;53.164;8.610;2023-11-19T03:43:34;26.10;;;9.07;;
74777;SDS011;63298;53.164;8.610;2023-11-19T03:46:00;16.65;;;8.52;;
74777;SDS011;63298;53.164;8.610;2023-11-19T03:48:25;17.77;;;8.27;;
74777;SDS011;63298;53.164;8.610;2023-11-19T03:50:50;16.83;;;8.48;;
74777;SDS011;63298;53.164;8.610;2023-11-19T03:53:16;17.80;;;8.32;;
74777;SDS011;63298;53.164;8.610;2023-11-19T03:55:41;16.88;;;8.35;;
74777;SDS011;63298;53.164;8.610;2023-11-19T03:58:07;19.92;;;8.73;;
74777;SDS011;63298;53.164;8.610;2023-11-19T04:00:32;22.60;;;8.15;;
74777;SDS011;63298;53.164;8.610;2023-11-19T04:02:58;19.30;;;8.13;;
74777;SDS011;63298;53.164;8.610;2023-11-19T04:05:23;19.67;;;8.05;;
74777;SDS011;63298;53.164;8.610;2023-11-19T04:07:48;16.80;;;7.68;;
74777;SDS011;63298;53.164;8.610;2023-11-19T04:10:14;14.85;;;6.55;;
74777;SDS011;63298;53.164;8.610;2023-11-19T04:12:39;18.00;;;6.97;;
74777;SDS011;63298;53.164;8.610;2023-11-19T04:15:05;14.88;;;6.55;;
74777;SDS011;63298;53.164;8.610;2023-11-19T04:17:31;15.55;;;6.22;;
74777;SDS011;63298;53.164;8.610;2023-11-19T04:19:56;24.02;;;7.25;;
74777;SDS011;63298;53.164;8.610;2023-11-19T04:22:22;20.10;;;7.18;;
74777;SDS011;63298;53.164;8.610;2023-11-19T04:24:47;12.35;;;6.28;;
74777;SDS011;63298;53.164;8.610;2023-11-19T04:27:13;23.88;;;6.47;;
74777;SDS011;63298;53.164;8.610;2023-11-19T04:29:39;20.95;;;7.15;;
74777;SDS011;63298;53.164;8.610;2023-11-19T04:32:04;18.50;;;6.05;;
74777;SDS011;63298;53.164;8.610;2023-11-19T04:34:30;17.77;;;6.78;;
74777;SDS011;63298;53.164;8.610;2023-11-19T04:36:55;27.02;;;6.75;;
74777;SDS011;63298;53.164;8.610;2023-11-19T04:39:21;21.63;;;6.90;;
74777;SDS011;63298;53.164;8.610;2023-11-19T04:41:46;16.70;;;7.57;;
74777;SDS011;63298;53.164;8.610;2023-11-19T04:44:12;23.50;;;6.07;;
74777;SDS011;63298;53.164;8.610;2023-11-19T04:46:37;21.85;;;6.18;;
74777;SDS011;63298;53.164;8.610;2023-11-19T04:49:05;20.58;;;7.05;;
74777;SDS011;63298;53.164;8.610;2023-11-19T04:51:30;22.40;;;5.78;;
74777;SDS011;63298;53.164;8.610;2023-11-19T04:53:56;14.50;;;5.43;;
74777;SDS011;63298;53.164;8.610;2023-11-19T04:56:21;19.23;;;5.65;;
74777;SDS011;63298;53.164;8.610;2023-11-19T04:58:47;21.02;;;5.72;;
74777;SDS011;63298;53.164;8.610;2023-11-19T05:01:15;34.28;;;6.43;;
74777;SDS011;63298;53.164;8.610;2023-11-19T05:03:41;27.10;;;6.70;;
74777;SDS011;63298;53.164;8.610;2023-11-19T05:06:06;15.52;;;5.38;;
74777;SDS011;63298;53.164;8.610;2023-11-19T05:08:32;21.40;;;5.53;;
74777;SDS011;63298;53.164;8.610;2023-11-19T05:10:57;20.65;;;6.05;;
74777;SDS011;63298;53.164;8.610;2023-11-19T05:13:23;18.40;;;5.30;;
74777;SDS011;63298;53.164;8.610;2023-11-19T05:15:48;17.73;;;5.20;;
74777;SDS011;63298;53.164;8.610;2023-11-19T05:18:14;24.70;;;5.40;;
74777;SDS011;63298;53.164;8.610;2023-11-19T05:20:39;25.08;;;6.35;;
74777;SDS011;63298;53.164;8.610;2023-11-19T05:23:04;23.67;;;5.40;;
74777;SDS011;63298;53.164;8.610;2023-11-19T05:25:30;30.17;;;4.95;;
74777;SDS011;63298;53.164;8.610;2023-11-19T05:27:55;22.92;;;4.90;;
74777;SDS011;63298;53.164;8.610;2023-11-19T05:30:21;25.00;;;4.60;;
74777;SDS011;63298;53.164;8.610;2023-11-19T05:32:46;26.23;;;4.47;;
74777;SDS011;63298;53.164;8.610;2023-11-19T05:35:11;23.48;;;3.95;;
74777;SDS011;63298;53.164;8.610;2023-11-19T05:37:40;18.98;;;4.45;;
74777;SDS011;63298;53.164;8.610;2023-11-19T05:40:05;18.20;;;4.57;;
74777;SDS011;63298;53.164;8.610;2023-11-19T05:42:31;19.08;;;4.65;;
74777;SDS011;63298;53.164;8.610;2023-11-19T05:44:57;18.20;;;3.75;;
74777;SDS011;63298;53.164;8.610;2023-11-19T05:47:22;18.00;;;3.63;;
74777;SDS011;63298;53.164;8.610;2023-11-19T05:49:47;26.00;;;4.47;;
74777;SDS011;63298;53.164;8.610;2023-11-19T05:52:13;20.08;;;4.10;;
74777;SDS011;63298;53.164;8.610;2023-11-19T05:54:38;24.45;;;4.20;;
74777;SDS011;63298;53.164;8.610;2023-11-19T05:57:04;26.02;;;4.60;;
74777;SDS011;63298;53.164;8.610;2023-11-19T05:59:30;16.60;;;3.20;;
74777;SDS011;63298;53.164;8.610;2023-11-19T06:01:57;15.85;;;3.40;;
74777;SDS011;63298;53.164;8.610;2023-11-19T06:04:22;25.77;;;4.22;;
74777;SDS011;63298;53.164;8.610;2023-11-19T06:06:48;20.05;;;3.45;;
74777;SDS011;63298;53.164;8.610;2023-11-19T06:09:13;29.05;;;3.33;;
74777;SDS011;63298;53.164;8.610;2023-11-19T06:11:38;26.90;;;3.92;;
74777;SDS011;63298;53.164;8.610;2023-11-19T06:14:04;22.20;;;4.00;;
74777;SDS011;63298;53.164;8.610;2023-11-19T06:16:29;13.43;;;2.70;;
74777;SDS011;63298;53.164;8.610;2023-11-19T06:18:55;17.55;;;3.28;;
74777;SDS011;63298;53.164;8.610;2023-11-19T06:21:20;28.10;;;3.47;;
74777;SDS011;63298;53.164;8.610;2023-11-19T06:23:45;23.20;;;3.70;;
74777;SDS011;63298;53.164;8.610;2023-11-19T06:26:11;21.92;;;4.22;;
74777;SDS011;63298;53.164;8.610;2023-11-19T06:28:36;23.88;;;3.30;;
74777;SDS011;63298;53.164;8.610;2023-11-19T06:31:03;21.00;;;3.10;;
74777;SDS011;63298;53.164;8.610;2023-11-19T06:33:28;24.80;;;3.42;;
74777;SDS011;63298;53.164;8.610;2023-11-19T06:35:54;29.23;;;3.70;;
74777;SDS011;63298;53.164;8.610;2023-11-19T06:38:21;24.73;;;3.17;;
74777;SDS011;63298;53.164;8.610;2023-11-19T06:40:47;20.33;;;4.22;;
74777;SDS011;63298;53.164;8.610;2023-11-19T06:43:12;28.00;;;4.53;;
74777;SDS011;63298;53.164;8.610;2023-11-19T06:45:38;26.88;;;3.42;;
74777;SDS011;63298;53.164;8.610;2023-11-19T06:48:03;34.45;;;3.42;;
74777;SDS011;63298;53.164;8.610;2023-11-19T06:50:29;28.70;;;4.68;;
74777;SDS011;63298;53.164;8.610;2023-11-19T06:52:55;27.65;;;3.65;;
74777;SDS011;63298;53.164;8.610;2023-11-19T06:55:20;21.15;;;2.95;;
74777;SDS011;63298;53.164;8.610;2023-11-19T06:57:46;34.83;;;4.55;;
74777;SDS011;63298;53.164;8.610;2023-11-19T07:00:12;27.92;;;3.17;;
74777;SDS011;63298;53.164;8.610;2023-11-19T07:02:37;22.70;;;2.97;;
74777;SDS011;63298;53.164;8.610;2023-11-19T07:05:03;34.55;;;4.13;;
74777;SDS011;63298;53.164;8.610;2023-11-19T07:07:29;34.35;;;4.22;;
74777;SDS011;63298;53.164;8.610;2023-11-19T07:09:55;23.90;;;3.05;;
74777;SDS011;63298;53.164;8.610;2023-11-19T07:12:21;20.83;;;3.38;;
74777;SDS011;63298;53.164;8.610;2023-11-19T07:14:46;31.48;;;4.28;;
74777;SDS011;63298;53.164;8.610;2023-11-19T07:17:11;28.70;;;3.67;;
74777;SDS011;63298;53.164;8.610;2023-11-19T07:19:40;22.30;;;3.05;;
74777;SDS011;63298;53.164;8.610;2023-11-19T07:22:07;35.13;;;3.70;;
74777;SDS011;63298;53.164;8.610;2023-11-19T07:24:33;33.70;;;4.15;;
74777;SDS011;63298;53.164;8.610;2023-11-19T07:26:58;23.45;;;4.20;;
74777;SDS011;63298;53.164;8.610;2023-11-19T07:29:23;31.92;;;4.47;;
74777;SDS011;63298;53.164;8.610;2023-11-19T07:31:49;37.28;;;4.22;;
74777;SDS011;63298;53.164;8.610;2023-11-19T07:34:14;24.65;;;4.28;;
74777;SDS011;63298;53.164;8.610;2023-11-19T07:36:40;28.60;;;3.42;;
74777;SDS011;63298;53.164;8.610;2023-11-19T07:39:06;25.80;;;4.25;;
74777;SDS011;63298;53.164;8.610;2023-11-19T07:41:31;27.67;;;3.97;;
74777;SDS011;63298;53.164;8.610;2023-11-19T07:43:57;21.10;;;3.47;;
74777;SDS011;63298;53.164;8.610;2023-11-19T07:46:23;26.40;;;4.10;;
74777;SDS011;63298;53.164;8.610;2023-11-19T07:48:48;25.55;;;4.30;;
74777;SDS011;63298;53.164;8.610;2023-11-19T07:51:13;27.63;;;4.47;;
74777;SDS011;63298;53.164;8.610;2023-11-19T07:53:40;31.90;;;4.03;;
74777;SDS011;63298;53.164;8.610;2023-11-19T07:56:06;27.90;;;4.10;;
74777;SDS011;63298;53.164;8.610;2023-11-19T07:58:35;29.63;;;4.13;;
74777;SDS011;63298;53.164;8.610;2023-11-19T08:01:00;31.45;;;3.78;;
74777;SDS011;63298;53.164;8.610;2023-11-19T08:03:26;36.70;;;4.30;;
74777;SDS011;63298;53.164;8.610;2023-11-19T08:05:51;35.17;;;3.88;;
74777;SDS011;63298;53.164;8.610;2023-11-19T08:08:17;30.08;;;4.20;;
74777;SDS011;63298;53.164;8.610;2023-11-19T08:10:42;26.40;;;3.65;;
74777;SDS011;63298;53.164;8.610;2023-11-19T08:13:08;27.30;;;3.90;;
74777;SDS011;63298;53.164;8.610;2023-11-19T08:15:33;24.60;;;3.67;;
74777;SDS011;63298;53.164;8.610;2023-11-19T08:17:59;42.78;;;4.53;;
74777;SDS011;63298;53.164;8.610;2023-11-19T08:20:24;26.73;;;3.70;;
74777;SDS011;63298;53.164;8.610;2023-11-19T08:22:49;32.72;;;4.57;;
74777;SDS011;63298;53.164;8.610;2023-11-19T08:25:15;33.67;;;4.00;;
74777;SDS011;63298;53.164;8.610;2023-11-19T08:27:42;30.42;;;3.78;;
74777;SDS011;63298;53.164;8.610;2023-11-19T08:30:08;28.15;;;3.55;;
74777;SDS011;63298;53.164;8.610;2023-11-19T08:32:34;30.58;;;3.83;;
74777;SDS011;63298;53.164;8.610;2023-11-19T08:34:59;34.33;;;3.78;;
74777;SDS011;63298;53.164;8.610;2023-11-19T08:37:26;32.22;;;3.75;;
74777;SDS011;63298;53.164;8.610;2023-11-19T08:39:51;34.30;;;3.83;;
74777;SDS011;63298;53.164;8.610;2023-11-19T08:42:16;35.33;;;4.05;;
74777;SDS011;63298;53.164;8.610;2023-11-19T08:44:51;22.65;;;3.58;;
74777;SDS011;63298;53.164;8.610;2023-11-19T08:47:16;21.42;;;3.72;;
74777;SDS011;63298;53.164;8.610;2023-11-19T08:49:42;23.40;;;3.20;;
74777;SDS011;63298;53.164;8.610;2023-11-19T08:52:10;35.80;;;3.83;;
74777;SDS011;63298;53.164;8.610;2023-11-19T08:54:36;27.08;;;3.95;;
74777;SDS011;63298;53.164;8.610;2023-11-19T08:57:02;31.27;;;5.60;;
74777;SDS011;63298;53.164;8.610;2023-11-19T08:59:28;39.75;;;4.45;;
74777;SDS011;63298;53.164;8.610;2023-11-19T09:01:54;26.90;;;3.25;;
74777;SDS011;63298;53.164;8.610;2023-11-19T09:04:20;30.40;;;4.57;;
74777;SDS011;63298;53.164;8.610;2023-11-19T09:06:45;36.10;;;3.75;;
74777;SDS011;63298;53.164;8.610;2023-11-19T09:36:39;30.70;;;3.97;;
74777;SDS011;63298;53.164;8.610;2023-11-19T10:13:01;25.45;;;3.65;;
74777;SDS011;63298;53.164;8.610;2023-11-19T10:15:27;23.98;;;3.70;;
74777;SDS011;63298;53.164;8.610;2023-11-19T10:17:56;23.52;;;3.60;;
74777;SDS011;63298;53.164;8.610;2023-11-19T10:47:37;25.42;;;3.50;;
74777;SDS011;63298;53.164;8.610;2023-11-19T10:54:04;32.58;;;4.68;;
74777;SDS011;63298;53.164;8.610;2023-11-19T11:13:07;24.95;;;3.35;;
74777;SDS011;63298;53.164;8.610;2023-11-19T11:15:33;29.52;;;3.90;;
74777;SDS011;63298;53.164;8.610;2023-11-19T11:18:00;20.17;;;3.40;;
74777;SDS011;63298;53.164;8.610;2023-11-19T11:20:27;24.45;;;3.65;;
74777;SDS011;63298;53.164;8.610;2023-11-19T11:22:59;27.75;;;4.72;;
74777;SDS011;63298;53.164;8.610;2023-11-19T11:40:07;31.67;;;3.92;;
74777;SDS011;63298;53.164;8.610;2023-11-19T11:42:39;36.85;;;4.40;;
74777;SDS011;63298;53.164;8.610;2023-11-19T11:45:08;26.38;;;3.63;;
74777;SDS011;63298;53.164;8.610;2023-11-19T11:50:18;33.88;;;3.72;;
74777;SDS011;63298;53.164;8.610;2023-11-19T11:55:28;29.00;;;3.88;;
74777;SDS011;63298;53.164;8.610;2023-11-19T11:57:57;25.98;;;4.43;;
74777;SDS011;63298;53.164;8.610;2023-11-19T12:02:54;27.75;;;3.95;;
74777;SDS011;63298;53.164;8.610;2023-11-19T12:05:21;22.67;;;3.50;;
74777;SDS011;63298;53.164;8.610;2023-11-19T12:07:56;29.88;;;4.03;;
74777;SDS011;63298;53.164;8.610;2023-11-19T12:10:25;32.22;;;6.05;;
74777;SDS011;63298;53.164;8.610;2023-11-19T12:12:53;23.20;;;3.67;;
74777;SDS011;63298;53.164;8.610;2023-11-19T12:15:23;34.67;;;5.10;;
74777;SDS011;63298;53.164;8.610;2023-11-19T12:31:08;22.58;;;3.72;;
74777;SDS011;63298;53.164;8.610;2023-11-19T12:33:35;30.27;;;4.00;;
74777;SDS011;63298;53.164;8.610;2023-11-19T12:36:00;19.73;;;3.08;;
74777;SDS011;63298;53.164;8.610;2023-11-19T12:38:26;23.20;;;5.47;;
74777;SDS011;63298;53.164;8.610;2023-11-19T12:43:48;21.63;;;3.28;;
74777;SDS011;63298;53.164;8.610;2023-11-19T12:46:26;19.35;;;2.65;;
74777;SDS011;63298;53.164;8.610;2023-11-19T12:49:01;19.08;;;2.70;;
74777;SDS011;63298;53.164;8.610;2023-11-19T12:51:33;19.25;;;2.65;;
74777;SDS011;63298;53.164;8.610;2023-11-19T12:54:07;19.20;;;2.78;;
74777;SDS011;63298;53.164;8.610;2023-11-19T12:56:39;15.27;;;2.53;;
74777;SDS011;63298;53.164;8.610;2023-11-19T13:05:26;8.77;;;1.90;;
74777;SDS011;63298;53.164;8.610;2023-11-19T13:08:02;5.43;;;1.60;;
74777;SDS011;63298;53.164;8.610;2023-11-19T13:10:49;15.43;;;1.80;;
74777;SDS011;63298;53.164;8.610;2023-11-19T13:13:29;9.60;;;1.80;;
74777;SDS011;63298;53.164;8.610;2023-11-19T13:19:16;10.85;;;2.10;;
74777;SDS011;63298;53.164;8.610;2023-11-19T13:24:38;11.90;;;1.25;;
74777;SDS011;63298;53.164;8.610;2023-11-19T13:30:45;5.05;;;1.58;;
74777;SDS011;63298;53.164;8.610;2023-11-19T13:33:15;8.88;;;1.60;;
74777;SDS011;63298;53.164;8.610;2023-11-19T13:35:41;8.07;;;1.55;;
74777;SDS011;63298;53.164;8.610;2023-11-19T13:38:06;4.50;;;1.30;;
74777;SDS011;63298;53.164;8.610;2023-11-19T13:40:41;5.40;;;1.00;;
74777;SDS011;63298;53.164;8.610;2023-11-19T13:43:06;7.53;;;1.25;;
74777;SDS011;63298;53.164;8.610;2023-11-19T13:45:35;8.57;;;1.00;;
74777;SDS011;63298;53.164;8.610;2023-11-19T13:48:21;5.82;;;1.00;;
74777;SDS011;63298;53.164;8.610;2023-11-19T13:50:58;8.77;;;1.30;;
74777;SDS011;63298;53.164;8.610;2023-11-19T13:53:26;11.05;;;1.50;;
74777;SDS011;63298;53.164;8.610;2023-11-19T13:56:01;8.27;;;1.30;;
74777;SDS011;63298;53.164;8.610;2023-11-19T14:01:28;11.60;;;2.20;;
74777;SDS011;63298;53.164;8.610;2023-11-19T14:03:54;13.80;;;3.20;;
74777;SDS011;63298;53.164;8.610;2023-11-19T14:06:25;10.50;;;2.97;;
74777;SDS011;63298;53.164;8.610;2023-11-19T14:09:03;10.65;;;2.05;;
74777;SDS011;63298;53.164;8.610;2023-11-19T14:11:40;12.23;;;2.60;;
74777;SDS011;63298;53.164;8.610;2023-11-19T14:14:38;13.07;;;2.63;;
74777;SDS011;63298;53.164;8.610;2023-11-19T14:17:37;18.83;;;2.50;;
74777;SDS011;63298;53.164;8.610;2023-11-19T14:20:03;11.85;;;2.47;;
74777;SDS011;63298;53.164;8.610;2023-11-19T14:22:29;17.98;;;2.97;;
74777;SDS011;63298;53.164;8.610;2023-11-19T14:25:07;15.18;;;2.65;;
74777;SDS011;63298;53.164;8.610;2023-11-19T14:27:43;15.27;;;2.15;;
74777;SDS011;63298;53.164;8.610;2023-11-19T14:30:25;21.02;;;2.53;;
74777;SDS011;63298;53.164;8.610;2023-11-19T14:32:53;18.38;;;3.63;;
74777;SDS011;63298;53.164;8.610;2023-11-19T14:35:34;20.13;;;3.85;;
74777;SDS011;63298;53.164;8.610;2023-11-19T14:38:05;17.20;;;2.40;;
74777;SDS011;63298;53.164;8.610;2023-11-19T14:40:38;18.65;;;2.80;;
74777;SDS011;63298;53.164;8.610;2023-11-19T14:43:04;18.52;;;3.08;;
74777;SDS011;63298;53.164;8.610;2023-11-19T14:45:29;17.20;;;2.88;;
74777;SDS011;63298;53.164;8.610;2023-11-19T14:47:57;18.05;;;3.58;;
74777;SDS011;63298;53.164;8.610;2023-11-19T14:50:25;16.98;;;2.50;;
74777;SDS011;63298;53.164;8.610;2023-11-19T14:52:50;18.10;;;2.88;;
74777;SDS011;63298;53.164;8.610;2023-11-19T14:55:16;17.60;;;2.88;;
74777;SDS011;63298;53.164;8.610;2023-11-19T14:57:43;14.70;;;2.40;;
74777;SDS011;63298;53.164;8.610;2023-11-19T15:00:09;14.45;;;2.22;;
74777;SDS011;63298;53.164;8.610;2023-11-19T15:02:36;14.32;;;2.83;;
74777;SDS011;63298;53.164;8.610;2023-11-19T15:05:02;16.40;;;2.65;;
74777;SDS011;63298;53.164;8.610;2023-11-19T15:07:27;9.98;;;2.10;;
74777;SDS011;63298;53.164;8.610;2023-11-19T15:09:53;11.68;;;2.42;;
74777;SDS011;63298;53.164;8.610;2023-11-19T15:12:18;13.10;;;2.35;;
74777;SDS011;63298;53.164;8.610;2023-11-19T15:14:43;21.27;;;3.05;;
74777;SDS011;63298;53.164;8.610;2023-11-19T15:17:09;15.48;;;2.72;;
74777;SDS011;63298;53.164;8.610;2023-11-19T15:19:34;13.70;;;2.15;;
74777;SDS011;63298;53.164;8.610;2023-11-19T15:21:59;16.77;;;2.75;;
74777;SDS011;63298;53.164;8.610;2023-11-19T15:24:25;10.63;;;2.13;;
74777;SDS011;63298;53.164;8.610;2023-11-19T15:26:50;14.32;;;2.05;;
74777;SDS011;63298;53.164;8.610;2023-11-19T15:29:23;18.45;;;2.33;;
74777;SDS011;63298;53.164;8.610;2023-11-19T15:31:48;15.50;;;2.55;;
74777;SDS011;63298;53.164;8.610;2023-11-19T15:34:14;17.65;;;2.55;;
74777;SDS011;63298;53.164;8.610;2023-11-19T15:36:39;17.83;;;2.60;;
74777;SDS011;63298;53.164;8.610;2023-11-19T15:39:07;15.60;;;2.58;;
74777;SDS011;63298;53.164;8.610;2023-11-19T15:41:32;13.02;;;1.90;;
74777;SDS011;63298;53.164;8.610;2023-11-19T15:43:58;12.60;;;2.67;;
74777;SDS011;63298;53.164;8.610;2023-11-19T15:46:23;22.77;;;2.72;;
74777;SDS011;63298;53.164;8.610;2023-11-19T15:48:48;20.50;;;2.90;;
74777;SDS011;63298;53.164;8.610;2023-11-19T15:51:14;16.63;;;2.63;;
74777;SDS011;63298;53.164;8.610;2023-11-19T15:53:39;17.90;;;3.60;;
74777;SDS011;63298;53.164;8.610;2023-11-19T15:56:07;14.10;;;2.33;;
74777;SDS011;63298;53.164;8.610;2023-11-19T15:58:32;20.63;;;2.95;;
74777;SDS011;63298;53.164;8.610;2023-11-19T16:00:57;14.95;;;2.50;;
74777;SDS011;63298;53.164;8.610;2023-11-19T16:03:23;20.10;;;2.90;;
74777;SDS011;63298;53.164;8.610;2023-11-19T16:05:48;17.58;;;2.97;;
74777;SDS011;63298;53.164;8.610;2023-11-19T16:08:14;22.50;;;3.00;;
74777;SDS011;63298;53.164;8.610;2023-11-19T16:10:39;24.95;;;3.60;;
74777;SDS011;63298;53.164;8.610;2023-11-19T16:13:05;20.90;;;3.38;;
74777;SDS011;63298;53.164;8.610;2023-11-19T16:15:31;11.07;;;2.58;;
74777;SDS011;63298;53.164;8.610;2023-11-19T16:17:56;21.20;;;3.20;;
74777;SDS011;63298;53.164;8.610;2023-11-19T16:20:21;25.50;;;4.13;;
74777;SDS011;63298;53.164;8.610;2023-11-19T16:22:47;21.05;;;2.78;;
74777;SDS011;63298;53.164;8.610;2023-11-19T16:25:12;27.92;;;3.83;;
74777;SDS011;63298;53.164;8.610;2023-11-19T16:27:41;14.48;;;3.33;;
74777;SDS011;63298;53.164;8.610;2023-11-19T16:30:06;20.02;;;3.05;;
74777;SDS011;63298;53.164;8.610;2023-11-19T16:32:32;21.67;;;3.30;;
74777;SDS011;63298;53.164;8.610;2023-11-19T16:34:57;18.15;;;2.83;;
74777;SDS011;63298;53.164;8.610;2023-11-19T16:37:22;27.25;;;3.45;;
74777;SDS011;63298;53.164;8.610;2023-11-19T16:39:48;17.98;;;2.83;;
74777;SDS011;63298;53.164;8.610;2023-11-19T16:42:16;19.48;;;2.80;;
74777;SDS011;63298;53.164;8.610;2023-11-19T16:44:41;22.88;;;3.85;;
74777;SDS011;63298;53.164;8.610;2023-11-19T16:47:07;21.40;;;3.28;;
74777;SDS011;63298;53.164;8.610;2023-11-19T16:52:23;20.50;;;3.17;;
74777;SDS011;63298;53.164;8.610;2023-11-19T16:58:11;21.13;;;3.08;;
74777;SDS011;63298;53.164;8.610;2023-11-19T17:00:45;19.35;;;3.63;;
74777;SDS011;63298;53.164;8.610;2023-11-19T17:03:30;17.63;;;2.83;;
74777;SDS011;63298;53.164;8.610;2023-11-19T17:06:44;23.20;;;3.80;;
74777;SDS011;63298;53.164;8.610;2023-11-19T17:10:09;19.85;;;3.33;;
74777;SDS011;63298;53.164;8.610;2023-11-19T17:12:48;23.83;;;3.78;;
74777;SDS011;63298;53.164;8.610;2023-11-19T17:15:35;21.25;;;3.38;;
74777;SDS011;63298;53.164;8.610;2023-11-19T17:24:43;22.13;;;2.90;;
74777;SDS011;63298;53.164;8.610;2023-11-19T17:27:43;18.55;;;4.30;;
74777;SDS011;63298;53.164;8.610;2023-11-19T17:30:11;15.27;;;2.20;;
74777;SDS011;63298;53.164;8.610;2023-11-19T17:35:53;29.33;;;3.53;;
74777;SDS011;63298;53.164;8.610;2023-11-19T17:41:35;20.98;;;2.80;;
74777;SDS011;63298;53.164;8.610;2023-11-19T17:48:09;19.58;;;2.75;;